sensor_id;sensor_type;location;lat;lon;timestamp;temperature;humidity
18974;DHT22;9621;48.690;9.466;2023-05-07T00:00:11;11.50;99.90
18974;DHT22;9621;48.690;9.466;2023-05-07T00:02:41;11.40;99.90
18974;DHT22;9621;48.690;9.466;2023-05-07T00:05:09;11.40;99.90
18974;DHT22;9621;48.690;9.466;2023-05-07T00:07:36;11.30;99.90
18974;DHT22;9621;48.690;9.466;2023-05-07T00:10:04;11.30;99.90
18974;DHT22;9621;48.690;9.466;2023-05-07T00:12:32;11.30;99.90
18974;DHT22;9621;48.690;9.466;2023-05-07T00:14:59;11.20;99.90
18974;DHT22;9621;48.690;9.466;2023-05-07T00:17:26;11.20;99.90
18974;DHT22;9621;48.690;9.466;2023-05-07T00:19:52;11.30;99.90
18974;DHT22;9621;48.690;9.466;2023-05-07T00:22:22;11.20;99.90
18974;DHT22;9621;48.690;9.466;2023-05-07T00:24:49;11.20;99.90
18974;DHT22;9621;48.690;9.466;2023-05-07T00:27:16;11.20;99.90
18974;DHT22;9621;48.690;9.466;2023-05-07T00:29:43;11.20;99.90
18974;DHT22;9621;48.690;9.466;2023-05-07T00:32:10;11.20;99.90
18974;DHT22;9621;48.690;9.466;2023-05-07T00:34:37;11.20;99.90
18974;DHT22;9621;48.690;9.466;2023-05-07T00:37:05;11.20;99.90
18974;DHT22;9621;48.690;9.466;2023-05-07T00:39:34;11.10;99.90
18974;DHT22;9621;48.690;9.466;2023-05-07T00:42:01;11.10;99.90
18974;DHT22;9621;48.690;9.466;2023-05-07T00:44:28;11.10;99.90
18974;DHT22;9621;48.690;9.466;2023-05-07T00:46:55;11.10;99.90
18974;DHT22;9621;48.690;9.466;2023-05-07T00:49:25;11.10;99.90
18974;DHT22;9621;48.690;9.466;2023-05-07T00:51:58;11.00;99.90
18974;DHT22;9621;48.690;9.466;2023-05-07T00:54:26;11.00;99.90
18974;DHT22;9621;48.690;9.466;2023-05-07T00:56:55;11.00;99.90
18974;DHT22;9621;48.690;9.466;2023-05-07T00:59:22;10.90;99.90
18974;DHT22;9621;48.690;9.466;2023-05-07T01:01:50;10.90;99.90
18974;DHT22;9621;48.690;9.466;2023-05-07T01:04:18;10.90;99.90
18974;DHT22;9621;48.690;9.466;2023-05-07T01:06:45;10.90;99.90
18974;DHT22;9621;48.690;9.466;2023-05-07T01:09:13;10.80;99.90
18974;DHT22;9621;48.690;9.466;2023-05-07T01:11:40;10.80;99.90
18974;DHT22;9621;48.690;9.466;2023-05-07T01:14:10;10.80;99.90
18974;DHT22;9621;48.690;9.466;2023-05-07T01:16:37;10.80;99.90
18974;DHT22;9621;48.690;9.466;2023-05-07T01:19:10;10.80;99.90
18974;DHT22;9621;48.690;9.466;2023-05-07T01:21:44;10.80;99.90
18974;DHT22;9621;48.690;9.466;2023-05-07T01:24:14;10.80;99.90
18974;DHT22;9621;48.690;9.466;2023-05-07T01:26:42;10.80;99.90
18974;DHT22;9621;48.690;9.466;2023-05-07T01:29:11;10.90;99.90
18974;DHT22;9621;48.690;9.466;2023-05-07T01:31:41;10.80;99.90
18974;DHT22;9621;48.690;9.466;2023-05-07T01:34:11;10.70;99.90
18974;DHT22;9621;48.690;9.466;2023-05-07T01:36:40;10.70;99.90
18974;DHT22;9621;48.690;9.466;2023-05-07T01:39:09;10.60;99.90
18974;DHT22;9621;48.690;9.466;2023-05-07T01:41:38;10.60;99.90
18974;DHT22;9621;48.690;9.466;2023-05-07T01:44:07;10.60;99.90
18974;DHT22;9621;48.690;9.466;2023-05-07T01:46:38;10.60;99.90
18974;DHT22;9621;48.690;9.466;2023-05-07T01:49:05;10.60;99.90
18974;DHT22;9621;48.690;9.466;2023-05-07T01:51:33;10.60;99.90
18974;DHT22;9621;48.690;9.466;2023-05-07T01:54:00;10.50;99.90
18974;DHT22;9621;48.690;9.466;2023-05-07T01:56:26;10.60;99.90
18974;DHT22;9621;48.690;9.466;2023-05-07T01:58:55;10.50;99.90
18974;DHT22;9621;48.690;9.466;2023-05-07T02:01:22;10.50;99.90
18974;DHT22;9621;48.690;9.466;2023-05-07T02:03:49;10.40;99.90
18974;DHT22;9621;48.690;9.466;2023-05-07T02:06:16;10.40;99.90
18974;DHT22;9621;48.690;9.466;2023-05-07T02:08:43;10.40;99.90
18974;DHT22;9621;48.690;9.466;2023-05-07T02:11:10;10.40;99.90
18974;DHT22;9621;48.690;9.466;2023-05-07T02:13:37;10.40;99.90
18974;DHT22;9621;48.690;9.466;2023-05-07T02:16:06;10.40;99.90
18974;DHT22;9621;48.690;9.466;2023-05-07T02:18:32;10.30;99.90
18974;DHT22;9621;48.690;9.466;2023-05-07T02:20:59;10.30;99.90
18974;DHT22;9621;48.690;9.466;2023-05-07T02:23:26;10.40;99.90
18974;DHT22;9621;48.690;9.466;2023-05-07T02:25:53;10.40;99.90
18974;DHT22;9621;48.690;9.466;2023-05-07T02:28:20;10.20;99.90
18974;DHT22;9621;48.690;9.466;2023-05-07T02:30:46;10.30;99.90
18974;DHT22;9621;48.690;9.466;2023-05-07T02:33:15;10.20;99.90
18974;DHT22;9621;48.690;9.466;2023-05-07T02:35:41;10.20;99.90
18974;DHT22;9621;48.690;9.466;2023-05-07T02:38:08;10.20;99.90
18974;DHT22;9621;48.690;9.466;2023-05-07T02:40:36;10.20;99.90
18974;DHT22;9621;48.690;9.466;2023-05-07T02:43:04;10.20;99.90
18974;DHT22;9621;48.690;9.466;2023-05-07T02:45:31;10.20;99.90
18974;DHT22;9621;48.690;9.466;2023-05-07T02:47:59;10.20;99.90
18974;DHT22;9621;48.690;9.466;2023-05-07T02:50:28;10.20;99.90
18974;DHT22;9621;48.690;9.466;2023-05-07T02:52:55;10.10;99.90
18974;DHT22;9621;48.690;9.466;2023-05-07T02:55:25;10.10;99.90
18974;DHT22;9621;48.690;9.466;2023-05-07T02:57:54;10.00;99.90
18974;DHT22;9621;48.690;9.466;2023-05-07T03:00:22;10.00;99.90
18974;DHT22;9621;48.690;9.466;2023-05-07T03:02:48;10.00;99.90
18974;DHT22;9621;48.690;9.466;2023-05-07T03:05:15;9.90;99.90
18974;DHT22;9621;48.690;9.466;2023-05-07T03:07:46;10.00;99.90
18974;DHT22;9621;48.690;9.466;2023-05-07T03:10:13;9.90;99.90
18974;DHT22;9621;48.690;9.466;2023-05-07T03:12:40;9.80;99.90
18974;DHT22;9621;48.690;9.466;2023-05-07T03:15:08;9.80;99.90
18974;DHT22;9621;48.690;9.466;2023-05-07T03:17:38;9.80;99.90
18974;DHT22;9621;48.690;9.466;2023-05-07T03:20:06;9.90;99.90
18974;DHT22;9621;48.690;9.466;2023-05-07T03:22:36;9.70;99.90
18974;DHT22;9621;48.690;9.466;2023-05-07T03:25:06;9.70;99.90
18974;DHT22;9621;48.690;9.466;2023-05-07T03:27:33;9.60;99.90
18974;DHT22;9621;48.690;9.466;2023-05-07T03:30:00;9.60;99.90
18974;DHT22;9621;48.690;9.466;2023-05-07T03:32:27;9.60;99.90
18974;DHT22;9621;48.690;9.466;2023-05-07T03:34:54;9.50;99.90
18974;DHT22;9621;48.690;9.466;2023-05-07T03:37:21;9.40;99.90
18974;DHT22;9621;48.690;9.466;2023-05-07T03:39:48;9.40;99.90
18974;DHT22;9621;48.690;9.466;2023-05-07T03:42:17;9.40;99.90
18974;DHT22;9621;48.690;9.466;2023-05-07T03:44:44;9.30;99.90
18974;DHT22;9621;48.690;9.466;2023-05-07T03:47:11;9.30;99.90
18974;DHT22;9621;48.690;9.466;2023-05-07T03:49:38;9.30;99.90
18974;DHT22;9621;48.690;9.466;2023-05-07T03:52:06;9.20;99.90
18974;DHT22;9621;48.690;9.466;2023-05-07T03:54:33;9.30;99.90
18974;DHT22;9621;48.690;9.466;2023-05-07T03:57:00;9.40;99.90
18974;DHT22;9621;48.690;9.466;2023-05-07T03:59:28;9.30;99.90
18974;DHT22;9621;48.690;9.466;2023-05-07T04:01:55;9.20;99.90
18974;DHT22;9621;48.690;9.466;2023-05-07T04:04:22;9.30;99.90
18974;DHT22;9621;48.690;9.466;2023-05-07T04:06:49;9.20;99.90
18974;DHT22;9621;48.690;9.466;2023-05-07T04:09:17;9.10;99.90
18974;DHT22;9621;48.690;9.466;2023-05-07T04:11:43;9.20;99.90
18974;DHT22;9621;48.690;9.466;2023-05-07T04:14:11;9.10;99.90
18974;DHT22;9621;48.690;9.466;2023-05-07T04:16:39;9.10;99.90
18974;DHT22;9621;48.690;9.466;2023-05-07T04:19:06;9.10;99.90
18974;DHT22;9621;48.690;9.466;2023-05-07T04:21:32;9.10;99.90
18974;DHT22;9621;48.690;9.466;2023-05-07T04:23:59;9.10;99.90
18974;DHT22;9621;48.690;9.466;2023-05-07T04:26:26;9.10;99.90
18974;DHT22;9621;48.690;9.466;2023-05-07T04:28:53;9.00;99.90
18974;DHT22;9621;48.690;9.466;2023-05-07T04:31:20;9.00;99.90
18974;DHT22;9621;48.690;9.466;2023-05-07T04:33:48;9.10;99.90
18974;DHT22;9621;48.690;9.466;2023-05-07T04:36:16;9.00;99.90
18974;DHT22;9621;48.690;9.466;2023-05-07T04:38:43;9.00;99.90
18974;DHT22;9621;48.690;9.466;2023-05-07T04:41:12;9.10;99.90
18974;DHT22;9621;48.690;9.466;2023-05-07T04:43:39;9.10;99.90
18974;DHT22;9621;48.690;9.466;2023-05-07T04:46:07;9.10;99.90
18974;DHT22;9621;48.690;9.466;2023-05-07T04:48:33;9.10;99.90
18974;DHT22;9621;48.690;9.466;2023-05-07T04:51:02;9.10;99.90
18974;DHT22;9621;48.690;9.466;2023-05-07T04:53:29;9.10;99.90
18974;DHT22;9621;48.690;9.466;2023-05-07T04:55:56;9.20;99.90
18974;DHT22;9621;48.690;9.466;2023-05-07T04:58:23;9.10;99.90
18974;DHT22;9621;48.690;9.466;2023-05-07T05:00:50;9.20;99.90
18974;DHT22;9621;48.690;9.466;2023-05-07T05:03:17;9.20;99.90
18974;DHT22;9621;48.690;9.466;2023-05-07T05:05:44;9.10;99.90
18974;DHT22;9621;48.690;9.466;2023-05-07T05:08:12;9.20;99.90
18974;DHT22;9621;48.690;9.466;2023-05-07T05:10:40;9.20;99.90
18974;DHT22;9621;48.690;9.466;2023-05-07T05:13:08;9.20;99.90
18974;DHT22;9621;48.690;9.466;2023-05-07T05:15:38;9.20;99.90
18974;DHT22;9621;48.690;9.466;2023-05-07T05:18:05;9.30;99.90
18974;DHT22;9621;48.690;9.466;2023-05-07T05:20:32;9.30;99.90
18974;DHT22;9621;48.690;9.466;2023-05-07T05:22:59;9.40;99.90
18974;DHT22;9621;48.690;9.466;2023-05-07T05:25:27;9.30;99.90
18974;DHT22;9621;48.690;9.466;2023-05-07T05:27:54;9.40;99.90
18974;DHT22;9621;48.690;9.466;2023-05-07T05:30:21;9.50;99.90
18974;DHT22;9621;48.690;9.466;2023-05-07T05:32:47;9.60;99.90
18974;DHT22;9621;48.690;9.466;2023-05-07T05:35:14;9.70;99.90
18974;DHT22;9621;48.690;9.466;2023-05-07T05:37:41;9.80;99.90
18974;DHT22;9621;48.690;9.466;2023-05-07T05:40:09;9.80;99.90
18974;DHT22;9621;48.690;9.466;2023-05-07T05:42:38;10.00;99.90
18974;DHT22;9621;48.690;9.466;2023-05-07T05:45:06;10.10;99.90
18974;DHT22;9621;48.690;9.466;2023-05-07T05:47:33;10.20;99.90
18974;DHT22;9621;48.690;9.466;2023-05-07T05:50:00;10.50;99.90
18974;DHT22;9621;48.690;9.466;2023-05-07T05:52:27;10.50;99.90
18974;DHT22;9621;48.690;9.466;2023-05-07T05:54:54;10.70;99.90
18974;DHT22;9621;48.690;9.466;2023-05-07T05:57:21;10.80;99.90
18974;DHT22;9621;48.690;9.466;2023-05-07T05:59:49;11.00;99.90
18974;DHT22;9621;48.690;9.466;2023-05-07T06:02:16;11.10;99.90
18974;DHT22;9621;48.690;9.466;2023-05-07T06:04:43;11.30;99.90
18974;DHT22;9621;48.690;9.466;2023-05-07T06:07:10;11.50;99.90
18974;DHT22;9621;48.690;9.466;2023-05-07T06:09:37;11.70;99.90
18974;DHT22;9621;48.690;9.466;2023-05-07T06:12:05;11.90;99.90
18974;DHT22;9621;48.690;9.466;2023-05-07T06:14:32;12.00;99.90
18974;DHT22;9621;48.690;9.466;2023-05-07T06:17:00;12.30;99.90
18974;DHT22;9621;48.690;9.466;2023-05-07T06:19:27;12.40;99.90
18974;DHT22;9621;48.690;9.466;2023-05-07T06:21:54;12.60;99.90
18974;DHT22;9621;48.690;9.466;2023-05-07T06:24:22;12.90;99.90
18974;DHT22;9621;48.690;9.466;2023-05-07T06:26:48;13.10;99.90
18974;DHT22;9621;48.690;9.466;2023-05-07T06:29:16;13.30;99.90
18974;DHT22;9621;48.690;9.466;2023-05-07T06:31:42;13.50;99.90
18974;DHT22;9621;48.690;9.466;2023-05-07T06:34:11;13.70;99.90
18974;DHT22;9621;48.690;9.466;2023-05-07T06:36:39;14.00;99.90
18974;DHT22;9621;48.690;9.466;2023-05-07T06:39:06;14.20;99.90
18974;DHT22;9621;48.690;9.466;2023-05-07T06:41:33;14.30;99.90
18974;DHT22;9621;48.690;9.466;2023-05-07T06:44:01;14.50;99.90
18974;DHT22;9621;48.690;9.466;2023-05-07T06:46:28;14.70;99.90
18974;DHT22;9621;48.690;9.466;2023-05-07T06:48:56;14.80;99.90
18974;DHT22;9621;48.690;9.466;2023-05-07T06:51:25;15.00;99.90
18974;DHT22;9621;48.690;9.466;2023-05-07T06:53:52;15.20;99.90
18974;DHT22;9621;48.690;9.466;2023-05-07T06:56:19;15.50;99.90
18974;DHT22;9621;48.690;9.466;2023-05-07T06:58:46;15.70;99.90
18974;DHT22;9621;48.690;9.466;2023-05-07T07:01:13;15.90;99.90
18974;DHT22;9621;48.690;9.466;2023-05-07T07:03:40;16.10;99.90
18974;DHT22;9621;48.690;9.466;2023-05-07T07:06:07;16.30;99.90
18974;DHT22;9621;48.690;9.466;2023-05-07T07:08:35;16.50;99.90
18974;DHT22;9621;48.690;9.466;2023-05-07T07:11:04;16.60;99.90
18974;DHT22;9621;48.690;9.466;2023-05-07T07:13:31;16.80;99.90
18974;DHT22;9621;48.690;9.466;2023-05-07T07:15:59;16.90;99.90
18974;DHT22;9621;48.690;9.466;2023-05-07T07:18:26;17.00;99.90
18974;DHT22;9621;48.690;9.466;2023-05-07T07:20:54;17.20;99.90
18974;DHT22;9621;48.690;9.466;2023-05-07T07:23:21;17.40;99.90
18974;DHT22;9621;48.690;9.466;2023-05-07T07:25:49;17.50;99.90
18974;DHT22;9621;48.690;9.466;2023-05-07T07:28:17;17.60;99.90
18974;DHT22;9621;48.690;9.466;2023-05-07T07:30:44;17.70;99.90
18974;DHT22;9621;48.690;9.466;2023-05-07T07:33:11;17.90;99.90
18974;DHT22;9621;48.690;9.466;2023-05-07T07:35:38;18.10;99.90
18974;DHT22;9621;48.690;9.466;2023-05-07T07:38:05;18.20;99.90
18974;DHT22;9621;48.690;9.466;2023-05-07T07:40:33;18.30;99.90
18974;DHT22;9621;48.690;9.466;2023-05-07T07:43:02;18.40;99.90
18974;DHT22;9621;48.690;9.466;2023-05-07T07:45:29;18.60;99.90
18974;DHT22;9621;48.690;9.466;2023-05-07T07:47:55;18.70;99.90
18974;DHT22;9621;48.690;9.466;2023-05-07T07:50:22;18.80;99.90
18974;DHT22;9621;48.690;9.466;2023-05-07T07:52:49;18.90;99.90
18974;DHT22;9621;48.690;9.466;2023-05-07T07:55:20;19.10;99.90
18974;DHT22;9621;48.690;9.466;2023-05-07T07:57:48;19.20;99.90
18974;DHT22;9621;48.690;9.466;2023-05-07T08:00:19;19.30;99.90
18974;DHT22;9621;48.690;9.466;2023-05-07T08:02:45;19.50;99.90
18974;DHT22;9621;48.690;9.466;2023-05-07T08:05:13;19.60;99.90
18974;DHT22;9621;48.690;9.466;2023-05-07T08:07:40;19.80;99.90
18974;DHT22;9621;48.690;9.466;2023-05-07T08:10:08;20.00;99.90
18974;DHT22;9621;48.690;9.466;2023-05-07T08:12:36;20.10;99.90
18974;DHT22;9621;48.690;9.466;2023-05-07T08:15:03;20.30;99.90
18974;DHT22;9621;48.690;9.466;2023-05-07T08:17:31;20.50;99.90
18974;DHT22;9621;48.690;9.466;2023-05-07T08:19:58;20.60;99.90
18974;DHT22;9621;48.690;9.466;2023-05-07T08:22:25;20.70;99.90
18974;DHT22;9621;48.690;9.466;2023-05-07T08:24:52;20.80;99.90
18974;DHT22;9621;48.690;9.466;2023-05-07T08:27:19;21.00;99.90
18974;DHT22;9621;48.690;9.466;2023-05-07T08:29:46;21.10;99.90
18974;DHT22;9621;48.690;9.466;2023-05-07T08:32:13;21.30;99.90
18974;DHT22;9621;48.690;9.466;2023-05-07T08:34:41;21.50;99.90
18974;DHT22;9621;48.690;9.466;2023-05-07T08:37:08;21.60;99.90
18974;DHT22;9621;48.690;9.466;2023-05-07T08:39:35;21.80;99.90
18974;DHT22;9621;48.690;9.466;2023-05-07T08:42:04;21.90;99.90
18974;DHT22;9621;48.690;9.466;2023-05-07T08:44:33;22.10;99.90
18974;DHT22;9621;48.690;9.466;2023-05-07T08:47:01;22.30;99.90
18974;DHT22;9621;48.690;9.466;2023-05-07T08:49:28;22.50;99.90
18974;DHT22;9621;48.690;9.466;2023-05-07T08:51:57;22.70;99.90
18974;DHT22;9621;48.690;9.466;2023-05-07T08:54:25;22.80;99.90
18974;DHT22;9621;48.690;9.466;2023-05-07T08:56:52;23.00;99.90
18974;DHT22;9621;48.690;9.466;2023-05-07T08:59:19;23.20;99.90
18974;DHT22;9621;48.690;9.466;2023-05-07T09:01:46;23.30;99.90
18974;DHT22;9621;48.690;9.466;2023-05-07T09:04:13;23.50;99.90
18974;DHT22;9621;48.690;9.466;2023-05-07T09:06:40;23.60;99.90
18974;DHT22;9621;48.690;9.466;2023-05-07T09:09:08;23.70;99.90
18974;DHT22;9621;48.690;9.466;2023-05-07T09:11:35;23.80;99.90
18974;DHT22;9621;48.690;9.466;2023-05-07T09:14:02;24.00;99.90
18974;DHT22;9621;48.690;9.466;2023-05-07T09:16:30;24.00;99.90
18974;DHT22;9621;48.690;9.466;2023-05-07T09:18:58;24.20;99.90
18974;DHT22;9621;48.690;9.466;2023-05-07T09:21:25;24.30;99.90
18974;DHT22;9621;48.690;9.466;2023-05-07T09:23:54;24.40;99.90
18974;DHT22;9621;48.690;9.466;2023-05-07T09:26:23;24.50;99.90
18974;DHT22;9621;48.690;9.466;2023-05-07T09:28:50;24.60;99.90
18974;DHT22;9621;48.690;9.466;2023-05-07T09:31:17;24.70;99.90
18974;DHT22;9621;48.690;9.466;2023-05-07T09:33:44;24.80;99.90
18974;DHT22;9621;48.690;9.466;2023-05-07T09:36:11;25.00;99.90
18974;DHT22;9621;48.690;9.466;2023-05-07T09:38:38;25.00;99.90
18974;DHT22;9621;48.690;9.466;2023-05-07T09:41:07;25.20;99.90
18974;DHT22;9621;48.690;9.466;2023-05-07T09:43:37;25.30;99.90
18974;DHT22;9621;48.690;9.466;2023-05-07T09:46:07;25.40;99.90
18974;DHT22;9621;48.690;9.466;2023-05-07T09:48:38;25.60;99.90
18974;DHT22;9621;48.690;9.466;2023-05-07T09:51:11;25.70;99.90
18974;DHT22;9621;48.690;9.466;2023-05-07T09:53:43;25.80;99.90
18974;DHT22;9621;48.690;9.466;2023-05-07T09:56:12;25.90;99.90
18974;DHT22;9621;48.690;9.466;2023-05-07T09:58:41;26.00;99.90
18974;DHT22;9621;48.690;9.466;2023-05-07T10:01:10;26.10;99.90
18974;DHT22;9621;48.690;9.466;2023-05-07T10:03:39;26.10;99.90
18974;DHT22;9621;48.690;9.466;2023-05-07T10:06:08;26.10;99.90
18974;DHT22;9621;48.690;9.466;2023-05-07T10:08:36;26.10;99.90
18974;DHT22;9621;48.690;9.466;2023-05-07T10:11:04;26.30;99.90
18974;DHT22;9621;48.690;9.466;2023-05-07T10:13:32;26.40;99.90
18974;DHT22;9621;48.690;9.466;2023-05-07T10:16:01;26.50;99.90
18974;DHT22;9621;48.690;9.466;2023-05-07T10:18:30;26.60;99.90
18974;DHT22;9621;48.690;9.466;2023-05-07T10:21:03;26.80;99.90
18974;DHT22;9621;48.690;9.466;2023-05-07T10:23:32;26.90;98.30
18974;DHT22;9621;48.690;9.466;2023-05-07T10:26:00;27.10;99.50
18974;DHT22;9621;48.690;9.466;2023-05-07T10:28:30;27.20;99.90
18974;DHT22;9621;48.690;9.466;2023-05-07T10:31:10;27.40;99.40
18974;DHT22;9621;48.690;9.466;2023-05-07T10:33:40;27.50;96.90
18974;DHT22;9621;48.690;9.466;2023-05-07T10:36:07;27.70;99.90
18974;DHT22;9621;48.690;9.466;2023-05-07T10:38:34;27.80;99.10
18974;DHT22;9621;48.690;9.466;2023-05-07T10:41:01;28.10;99.50
18974;DHT22;9621;48.690;9.466;2023-05-07T10:43:39;28.40;98.40
18974;DHT22;9621;48.690;9.466;2023-05-07T10:46:14;28.70;93.60
18974;DHT22;9621;48.690;9.466;2023-05-07T10:49:11;28.90;93.90
18974;DHT22;9621;48.690;9.466;2023-05-07T10:51:38;29.00;94.40
18974;DHT22;9621;48.690;9.466;2023-05-07T10:54:23;29.20;97.40
18974;DHT22;9621;48.690;9.466;2023-05-07T10:56:50;29.60;98.20
18974;DHT22;9621;48.690;9.466;2023-05-07T10:59:33;29.80;96.90
18974;DHT22;9621;48.690;9.466;2023-05-07T11:02:07;30.30;97.30
18974;DHT22;9621;48.690;9.466;2023-05-07T11:04:36;30.40;93.60
18974;DHT22;9621;48.690;9.466;2023-05-07T11:07:26;30.60;94.00
18974;DHT22;9621;48.690;9.466;2023-05-07T11:10:03;30.60;91.20
18974;DHT22;9621;48.690;9.466;2023-05-07T11:12:51;30.40;89.80
18974;DHT22;9621;48.690;9.466;2023-05-07T11:15:43;30.10;88.40
18974;DHT22;9621;48.690;9.466;2023-05-07T11:18:13;29.70;88.60
18974;DHT22;9621;48.690;9.466;2023-05-07T11:20:54;29.50;88.50
18974;DHT22;9621;48.690;9.466;2023-05-07T11:26:47;29.20;88.30
18974;DHT22;9621;48.690;9.466;2023-05-07T11:29:16;29.10;88.00
18974;DHT22;9621;48.690;9.466;2023-05-07T11:31:43;28.90;90.40
18974;DHT22;9621;48.690;9.466;2023-05-07T11:34:12;28.90;90.90
18974;DHT22;9621;48.690;9.466;2023-05-07T11:36:43;28.80;89.50
18974;DHT22;9621;48.690;9.466;2023-05-07T11:39:24;28.90;88.00
18974;DHT22;9621;48.690;9.466;2023-05-07T11:41:51;28.90;90.90
18974;DHT22;9621;48.690;9.466;2023-05-07T11:44:18;28.90;90.20
18974;DHT22;9621;48.690;9.466;2023-05-07T11:46:45;29.00;89.50
18974;DHT22;9621;48.690;9.466;2023-05-07T11:49:13;29.00;89.10
18974;DHT22;9621;48.690;9.466;2023-05-07T11:51:41;29.10;88.10
18974;DHT22;9621;48.690;9.466;2023-05-07T11:54:08;29.20;88.00
18974;DHT22;9621;48.690;9.466;2023-05-07T11:56:37;29.30;90.30
18974;DHT22;9621;48.690;9.466;2023-05-07T11:59:04;29.30;86.00
18974;DHT22;9621;48.690;9.466;2023-05-07T12:01:31;29.30;89.20
18974;DHT22;9621;48.690;9.466;2023-05-07T12:03:58;29.30;86.00
18974;DHT22;9621;48.690;9.466;2023-05-07T12:06:30;29.20;84.00
18974;DHT22;9621;48.690;9.466;2023-05-07T12:08:57;29.20;81.10
18974;DHT22;9621;48.690;9.466;2023-05-07T12:11:29;29.00;82.60
18974;DHT22;9621;48.690;9.466;2023-05-07T12:13:56;28.70;77.50
18974;DHT22;9621;48.690;9.466;2023-05-07T12:16:23;28.40;83.60
18974;DHT22;9621;48.690;9.466;2023-05-07T12:18:51;28.00;81.70
18974;DHT22;9621;48.690;9.466;2023-05-07T12:21:20;28.00;80.50
18974;DHT22;9621;48.690;9.466;2023-05-07T12:23:49;27.70;80.50
18974;DHT22;9621;48.690;9.466;2023-05-07T12:26:16;27.20;83.90
18974;DHT22;9621;48.690;9.466;2023-05-07T12:28:46;27.10;80.00
18974;DHT22;9621;48.690;9.466;2023-05-07T12:31:14;26.50;80.70
18974;DHT22;9621;48.690;9.466;2023-05-07T12:33:41;26.40;79.30
18974;DHT22;9621;48.690;9.466;2023-05-07T12:36:09;26.00;81.00
18974;DHT22;9621;48.690;9.466;2023-05-07T12:38:39;25.70;80.80
18974;DHT22;9621;48.690;9.466;2023-05-07T12:41:09;25.30;81.10
18974;DHT22;9621;48.690;9.466;2023-05-07T12:43:37;24.90;79.40
18974;DHT22;9621;48.690;9.466;2023-05-07T12:46:06;24.50;81.00
18974;DHT22;9621;48.690;9.466;2023-05-07T12:48:35;24.10;81.00
18974;DHT22;9621;48.690;9.466;2023-05-07T12:51:03;23.70;82.30
18974;DHT22;9621;48.690;9.466;2023-05-07T12:53:31;23.40;82.70
18974;DHT22;9621;48.690;9.466;2023-05-07T12:55:59;23.10;83.30
18974;DHT22;9621;48.690;9.466;2023-05-07T12:58:28;22.70;82.90
18974;DHT22;9621;48.690;9.466;2023-05-07T13:00:57;22.40;83.00
18974;DHT22;9621;48.690;9.466;2023-05-07T13:03:26;22.10;85.30
18974;DHT22;9621;48.690;9.466;2023-05-07T13:05:54;21.70;86.30
18974;DHT22;9621;48.690;9.466;2023-05-07T13:08:30;21.50;87.50
18974;DHT22;9621;48.690;9.466;2023-05-07T13:10:58;21.10;87.50
18974;DHT22;9621;48.690;9.466;2023-05-07T13:13:29;20.90;90.00
18974;DHT22;9621;48.690;9.466;2023-05-07T13:15:56;20.70;90.50
18974;DHT22;9621;48.690;9.466;2023-05-07T13:18:25;20.50;91.00
18974;DHT22;9621;48.690;9.466;2023-05-07T13:20:52;20.30;91.30
18974;DHT22;9621;48.690;9.466;2023-05-07T13:23:19;20.20;92.10
18974;DHT22;9621;48.690;9.466;2023-05-07T13:25:47;20.10;92.30
18974;DHT22;9621;48.690;9.466;2023-05-07T13:28:14;19.90;92.60
18974;DHT22;9621;48.690;9.466;2023-05-07T13:30:42;19.80;92.60
18974;DHT22;9621;48.690;9.466;2023-05-07T13:33:09;19.60;93.30
18974;DHT22;9621;48.690;9.466;2023-05-07T13:35:36;19.50;93.00
18974;DHT22;9621;48.690;9.466;2023-05-07T13:38:04;19.20;93.20
18974;DHT22;9621;48.690;9.466;2023-05-07T13:40:31;19.10;94.00
18974;DHT22;9621;48.690;9.466;2023-05-07T13:42:58;18.90;94.60
18974;DHT22;9621;48.690;9.466;2023-05-07T13:45:27;18.80;95.20
18974;DHT22;9621;48.690;9.466;2023-05-07T13:47:57;18.70;95.60
18974;DHT22;9621;48.690;9.466;2023-05-07T13:50:24;18.70;96.00
18974;DHT22;9621;48.690;9.466;2023-05-07T13:52:52;18.60;95.90
18974;DHT22;9621;48.690;9.466;2023-05-07T13:55:20;18.50;96.20
18974;DHT22;9621;48.690;9.466;2023-05-07T13:57:48;18.50;96.10
18974;DHT22;9621;48.690;9.466;2023-05-07T14:00:21;18.40;96.20
18974;DHT22;9621;48.690;9.466;2023-05-07T14:02:47;18.40;96.70
18974;DHT22;9621;48.690;9.466;2023-05-07T14:05:16;18.30;96.90
18974;DHT22;9621;48.690;9.466;2023-05-07T14:07:43;18.30;97.60
18974;DHT22;9621;48.690;9.466;2023-05-07T14:10:10;18.20;97.60
18974;DHT22;9621;48.690;9.466;2023-05-07T14:12:38;18.20;97.60
18974;DHT22;9621;48.690;9.466;2023-05-07T14:15:06;18.10;97.70
18974;DHT22;9621;48.690;9.466;2023-05-07T14:17:33;18.00;97.80
18974;DHT22;9621;48.690;9.466;2023-05-07T14:20:00;17.80;97.90
18974;DHT22;9621;48.690;9.466;2023-05-07T14:22:29;17.60;98.10
18974;DHT22;9621;48.690;9.466;2023-05-07T14:24:56;17.40;98.70
18974;DHT22;9621;48.690;9.466;2023-05-07T14:27:23;17.20;99.40
18974;DHT22;9621;48.690;9.466;2023-05-07T14:29:49;17.00;99.90
18974;DHT22;9621;48.690;9.466;2023-05-07T14:32:17;16.80;99.90
18974;DHT22;9621;48.690;9.466;2023-05-07T14:34:44;16.60;99.90
18974;DHT22;9621;48.690;9.466;2023-05-07T14:37:11;16.50;99.90
18974;DHT22;9621;48.690;9.466;2023-05-07T14:39:40;16.30;99.90
18974;DHT22;9621;48.690;9.466;2023-05-07T14:42:06;16.20;99.90
18974;DHT22;9621;48.690;9.466;2023-05-07T14:44:34;16.10;99.90
18974;DHT22;9621;48.690;9.466;2023-05-07T14:47:01;15.90;99.90
18974;DHT22;9621;48.690;9.466;2023-05-07T14:49:28;15.80;99.90
18974;DHT22;9621;48.690;9.466;2023-05-07T14:51:57;15.70;99.90
18974;DHT22;9621;48.690;9.466;2023-05-07T14:54:24;15.60;99.90
18974;DHT22;9621;48.690;9.466;2023-05-07T14:56:52;15.40;99.90
18974;DHT22;9621;48.690;9.466;2023-05-07T14:59:19;15.30;99.90
18974;DHT22;9621;48.690;9.466;2023-05-07T15:01:47;15.20;99.90
18974;DHT22;9621;48.690;9.466;2023-05-07T15:04:14;15.10;99.90
18974;DHT22;9621;48.690;9.466;2023-05-07T15:06:41;15.00;99.90
18974;DHT22;9621;48.690;9.466;2023-05-07T15:09:09;14.90;99.90
18974;DHT22;9621;48.690;9.466;2023-05-07T15:11:35;14.80;99.90
18974;DHT22;9621;48.690;9.466;2023-05-07T15:14:04;14.70;99.90
18974;DHT22;9621;48.690;9.466;2023-05-07T15:16:31;14.60;99.90
18974;DHT22;9621;48.690;9.466;2023-05-07T15:18:58;14.60;99.90
18974;DHT22;9621;48.690;9.466;2023-05-07T15:21:25;14.50;99.90
18974;DHT22;9621;48.690;9.466;2023-05-07T15:23:52;14.50;99.90
18974;DHT22;9621;48.690;9.466;2023-05-07T15:26:19;14.40;99.90
18974;DHT22;9621;48.690;9.466;2023-05-07T15:28:47;14.30;99.90
18974;DHT22;9621;48.690;9.466;2023-05-07T15:31:15;14.20;99.90
18974;DHT22;9621;48.690;9.466;2023-05-07T15:33:42;14.20;99.90
18974;DHT22;9621;48.690;9.466;2023-05-07T15:36:10;14.10;99.90
18974;DHT22;9621;48.690;9.466;2023-05-07T15:38:37;14.20;99.90
18974;DHT22;9621;48.690;9.466;2023-05-07T15:41:04;14.20;99.90
18974;DHT22;9621;48.690;9.466;2023-05-07T15:43:30;14.20;99.90
18974;DHT22;9621;48.690;9.466;2023-05-07T15:45:57;14.20;99.90
18974;DHT22;9621;48.690;9.466;2023-05-07T15:48:27;14.20;99.90
18974;DHT22;9621;48.690;9.466;2023-05-07T15:50:54;14.20;99.90
18974;DHT22;9621;48.690;9.466;2023-05-07T15:53:21;14.10;99.90
18974;DHT22;9621;48.690;9.466;2023-05-07T15:55:48;14.20;99.90